sensor_id;sensor_type;location;lat;lon;timestamp;P1;durP1;ratioP1;P2;durP2;ratioP2
1759;SDS011;877;46.266;20.062;2024-02-23T00:00:55;7.20;;;4.90;;
1759;SDS011;877;46.266;20.062;2024-02-23T00:03:21;8.00;;;5.13;;
1759;SDS011;877;46.266;20.062;2024-02-23T00:05:47;8.30;;;4.47;;
1759;SDS011;877;46.266;20.062;2024-02-23T00:08:13;7.60;;;4.27;;
1759;SDS011;877;46.266;20.062;2024-02-23T00:10:39;8.90;;;4.77;;
1759;SDS011;877;46.266;20.062;2024-02-23T00:13:05;7.93;;;4.37;;
1759;SDS011;877;46.266;20.062;2024-02-23T00:15:32;7.87;;;4.60;;
1759;SDS011;877;46.266;20.062;2024-02-23T00:17:58;6.53;;;4.23;;
1759;SDS011;877;46.266;20.062;2024-02-23T00:20:24;6.67;;;3.90;;
1759;SDS011;877;46.266;20.062;2024-02-23T00:22:50;6.70;;;4.23;;
1759;SDS011;877;46.266;20.062;2024-02-23T00:25:17;7.00;;;4.30;;
1759;SDS011;877;46.266;20.062;2024-02-23T00:27:44;9.73;;;4.57;;
1759;SDS011;877;46.266;20.062;2024-02-23T00:30:12;7.00;;;3.90;;
1759;SDS011;877;46.266;20.062;2024-02-23T00:32:38;7.87;;;4.10;;
1759;SDS011;877;46.266;20.062;2024-02-23T00:35:04;8.20;;;4.20;;
1759;SDS011;877;46.266;20.062;2024-02-23T00:37:31;6.73;;;4.50;;
1759;SDS011;877;46.266;20.062;2024-02-23T00:40:01;6.77;;;4.00;;
1759;SDS011;877;46.266;20.062;2024-02-23T00:42:29;6.70;;;4.17;;
1759;SDS011;877;46.266;20.062;2024-02-23T00:44:55;11.43;;;4.67;;
1759;SDS011;877;46.266;20.062;2024-02-23T00:47:21;12.93;;;4.67;;
1759;SDS011;877;46.266;20.062;2024-02-23T00:49:47;10.60;;;4.73;;
1759;SDS011;877;46.266;20.062;2024-02-23T00:52:14;8.80;;;4.00;;
1759;SDS011;877;46.266;20.062;2024-02-23T00:54:40;10.00;;;4.30;;
1759;SDS011;877;46.266;20.062;2024-02-23T00:57:06;7.77;;;4.40;;
1759;SDS011;877;46.266;20.062;2024-02-23T00:59:32;6.67;;;3.60;;
1759;SDS011;877;46.266;20.062;2024-02-23T01:01:58;7.50;;;4.60;;
1759;SDS011;877;46.266;20.062;2024-02-23T01:04:24;7.43;;;4.43;;
1759;SDS011;877;46.266;20.062;2024-02-23T01:06:51;7.30;;;4.20;;
1759;SDS011;877;46.266;20.062;2024-02-23T01:09:17;7.93;;;4.67;;
1759;SDS011;877;46.266;20.062;2024-02-23T01:11:46;8.23;;;4.20;;
1759;SDS011;877;46.266;20.062;2024-02-23T01:14:12;10.23;;;4.40;;
1759;SDS011;877;46.266;20.062;2024-02-23T01:16:38;6.77;;;4.43;;
1759;SDS011;877;46.266;20.062;2024-02-23T01:19:04;7.30;;;4.27;;
1759;SDS011;877;46.266;20.062;2024-02-23T01:21:31;8.53;;;3.40;;
1759;SDS011;877;46.266;20.062;2024-02-23T01:23:58;7.77;;;3.63;;
1759;SDS011;877;46.266;20.062;2024-02-23T01:26:25;8.70;;;4.00;;
1759;SDS011;877;46.266;20.062;2024-02-23T01:28:52;6.50;;;3.83;;
1759;SDS011;877;46.266;20.062;2024-02-23T01:31:19;7.17;;;3.77;;
1759;SDS011;877;46.266;20.062;2024-02-23T01:33:45;7.00;;;4.20;;
1759;SDS011;877;46.266;20.062;2024-02-23T01:36:12;7.17;;;4.00;;
1759;SDS011;877;46.266;20.062;2024-02-23T01:38:38;6.57;;;4.20;;
1759;SDS011;877;46.266;20.062;2024-02-23T01:41:04;7.80;;;4.73;;
1759;SDS011;877;46.266;20.062;2024-02-23T01:43:31;7.70;;;4.40;;
1759;SDS011;877;46.266;20.062;2024-02-23T01:45:57;10.43;;;4.70;;
1759;SDS011;877;46.266;20.062;2024-02-23T01:48:24;7.53;;;4.30;;
1759;SDS011;877;46.266;20.062;2024-02-23T01:50:50;8.77;;;4.93;;
1759;SDS011;877;46.266;20.062;2024-02-23T01:53:16;8.70;;;5.30;;
1759;SDS011;877;46.266;20.062;2024-02-23T01:55:45;8.77;;;5.10;;
1759;SDS011;877;46.266;20.062;2024-02-23T01:58:12;10.33;;;4.97;;
1759;SDS011;877;46.266;20.062;2024-02-23T02:00:38;8.53;;;5.17;;
1759;SDS011;877;46.266;20.062;2024-02-23T02:03:04;8.30;;;5.20;;
1759;SDS011;877;46.266;20.062;2024-02-23T02:05:30;8.80;;;5.80;;
1759;SDS011;877;46.266;20.062;2024-02-23T02:07:56;9.27;;;5.87;;
1759;SDS011;877;46.266;20.062;2024-02-23T02:10:25;8.63;;;5.93;;
1759;SDS011;877;46.266;20.062;2024-02-23T02:13:01;7.00;;;5.10;;
1759;SDS011;877;46.266;20.062;2024-02-23T02:15:27;10.63;;;5.87;;
1759;SDS011;877;46.266;20.062;2024-02-23T02:17:53;8.77;;;5.20;;
1759;SDS011;877;46.266;20.062;2024-02-23T02:20:19;8.47;;;5.80;;
1759;SDS011;877;46.266;20.062;2024-02-23T02:22:49;10.40;;;6.40;;
1759;SDS011;877;46.266;20.062;2024-02-23T02:25:15;10.00;;;6.70;;
1759;SDS011;877;46.266;20.062;2024-02-23T02:27:41;9.90;;;7.00;;
1759;SDS011;877;46.266;20.062;2024-02-23T02:30:10;9.47;;;6.50;;
1759;SDS011;877;46.266;20.062;2024-02-23T02:32:37;10.63;;;7.10;;
1759;SDS011;877;46.266;20.062;2024-02-23T02:35:04;10.97;;;7.03;;
1759;SDS011;877;46.266;20.062;2024-02-23T02:37:30;11.03;;;6.27;;
1759;SDS011;877;46.266;20.062;2024-02-23T02:39:56;11.30;;;6.50;;
1759;SDS011;877;46.266;20.062;2024-02-23T02:42:22;12.57;;;5.97;;
1759;SDS011;877;46.266;20.062;2024-02-23T02:44:48;13.03;;;7.60;;
1759;SDS011;877;46.266;20.062;2024-02-23T02:47:14;11.17;;;6.43;;
1759;SDS011;877;46.266;20.062;2024-02-23T02:49:40;8.07;;;5.73;;
1759;SDS011;877;46.266;20.062;2024-02-23T02:52:06;8.87;;;5.77;;
1759;SDS011;877;46.266;20.062;2024-02-23T02:54:33;8.33;;;6.20;;
1759;SDS011;877;46.266;20.062;2024-02-23T02:56:59;10.57;;;6.17;;
1759;SDS011;877;46.266;20.062;2024-02-23T02:59:25;8.70;;;5.80;;
1759;SDS011;877;46.266;20.062;2024-02-23T03:01:51;9.73;;;5.27;;
1759;SDS011;877;46.266;20.062;2024-02-23T03:04:17;9.33;;;6.30;;
1759;SDS011;877;46.266;20.062;2024-02-23T03:06:44;9.70;;;6.70;;
1759;SDS011;877;46.266;20.062;2024-02-23T03:09:10;9.20;;;6.37;;
1759;SDS011;877;46.266;20.062;2024-02-23T03:11:36;8.67;;;5.87;;
1759;SDS011;877;46.266;20.062;2024-02-23T03:14:02;8.97;;;5.97;;
1759;SDS011;877;46.266;20.062;2024-02-23T03:16:28;8.40;;;5.60;;
1759;SDS011;877;46.266;20.062;2024-02-23T03:18:56;9.70;;;6.70;;
1759;SDS011;877;46.266;20.062;2024-02-23T03:21:22;10.63;;;6.23;;
1759;SDS011;877;46.266;20.062;2024-02-23T03:23:48;10.57;;;5.87;;
1759;SDS011;877;46.266;20.062;2024-02-23T03:26:14;10.03;;;6.10;;
1759;SDS011;877;46.266;20.062;2024-02-23T03:28:42;9.00;;;5.83;;
1759;SDS011;877;46.266;20.062;2024-02-23T03:31:08;9.47;;;5.77;;
1759;SDS011;877;46.266;20.062;2024-02-23T03:33:34;11.70;;;6.73;;
1759;SDS011;877;46.266;20.062;2024-02-23T03:36:00;10.43;;;6.13;;
1759;SDS011;877;46.266;20.062;2024-02-23T03:38:26;7.90;;;5.37;;
1759;SDS011;877;46.266;20.062;2024-02-23T03:40:54;9.57;;;6.03;;
1759;SDS011;877;46.266;20.062;2024-02-23T03:43:20;9.83;;;5.63;;
1759;SDS011;877;46.266;20.062;2024-02-23T03:45:46;8.63;;;5.93;;
1759;SDS011;877;46.266;20.062;2024-02-23T03:48:12;10.13;;;6.27;;
1759;SDS011;877;46.266;20.062;2024-02-23T03:50:38;9.47;;;5.87;;
1759;SDS011;877;46.266;20.062;2024-02-23T03:53:05;8.53;;;6.33;;
1759;SDS011;877;46.266;20.062;2024-02-23T03:55:31;9.33;;;6.67;;
1759;SDS011;877;46.266;20.062;2024-02-23T03:57:57;11.63;;;7.23;;
1759;SDS011;877;46.266;20.062;2024-02-23T04:00:24;16.67;;;8.60;;
1759;SDS011;877;46.266;20.062;2024-02-23T04:02:50;16.93;;;9.37;;
1759;SDS011;877;46.266;20.062;2024-02-23T04:05:17;14.23;;;9.63;;
1759;SDS011;877;46.266;20.062;2024-02-23T04:07:44;11.70;;;8.33;;
1759;SDS011;877;46.266;20.062;2024-02-23T04:10:10;12.77;;;9.27;;
1759;SDS011;877;46.266;20.062;2024-02-23T04:12:41;13.03;;;9.50;;
1759;SDS011;877;46.266;20.062;2024-02-23T04:15:07;15.70;;;9.57;;
1759;SDS011;877;46.266;20.062;2024-02-23T04:17:34;13.70;;;10.40;;
1759;SDS011;877;46.266;20.062;2024-02-23T04:20:00;13.47;;;9.87;;
1759;SDS011;877;46.266;20.062;2024-02-23T04:22:30;16.73;;;10.30;;
1759;SDS011;877;46.266;20.062;2024-02-23T04:24:56;16.97;;;11.47;;
1759;SDS011;877;46.266;20.062;2024-02-23T04:27:23;19.13;;;10.53;;
1759;SDS011;877;46.266;20.062;2024-02-23T04:29:49;14.20;;;10.90;;
1759;SDS011;877;46.266;20.062;2024-02-23T04:32:15;18.83;;;11.93;;
1759;SDS011;877;46.266;20.062;2024-02-23T04:34:42;17.70;;;11.53;;
1759;SDS011;877;46.266;20.062;2024-02-23T04:37:08;17.90;;;10.57;;
1759;SDS011;877;46.266;20.062;2024-02-23T04:39:34;15.30;;;10.67;;
1759;SDS011;877;46.266;20.062;2024-02-23T04:42:00;15.23;;;11.10;;
1759;SDS011;877;46.266;20.062;2024-02-23T04:44:26;16.10;;;11.03;;
1759;SDS011;877;46.266;20.062;2024-02-23T04:46:52;19.83;;;12.30;;
1759;SDS011;877;46.266;20.062;2024-02-23T04:49:19;15.73;;;10.70;;
1759;SDS011;877;46.266;20.062;2024-02-23T04:51:45;16.70;;;11.30;;
1759;SDS011;877;46.266;20.062;2024-02-23T04:54:11;16.63;;;11.20;;
1759;SDS011;877;46.266;20.062;2024-02-23T04:56:37;16.60;;;11.23;;
1759;SDS011;877;46.266;20.062;2024-02-23T04:59:03;15.43;;;10.43;;
1759;SDS011;877;46.266;20.062;2024-02-23T05:01:34;15.50;;;11.07;;
1759;SDS011;877;46.266;20.062;2024-02-23T05:04:01;19.70;;;11.10;;
1759;SDS011;877;46.266;20.062;2024-02-23T05:06:28;16.00;;;11.00;;
1759;SDS011;877;46.266;20.062;2024-02-23T05:08:54;20.43;;;12.67;;
1759;SDS011;877;46.266;20.062;2024-02-23T05:11:21;25.20;;;16.93;;
1759;SDS011;877;46.266;20.062;2024-02-23T05:13:47;19.73;;;13.60;;
1759;SDS011;877;46.266;20.062;2024-02-23T05:16:14;15.33;;;10.40;;
1759;SDS011;877;46.266;20.062;2024-02-23T05:18:41;14.93;;;9.47;;
1759;SDS011;877;46.266;20.062;2024-02-23T05:21:07;17.50;;;11.60;;
1759;SDS011;877;46.266;20.062;2024-02-23T05:23:33;16.20;;;11.80;;
1759;SDS011;877;46.266;20.062;2024-02-23T05:25:59;17.10;;;12.07;;
1759;SDS011;877;46.266;20.062;2024-02-23T05:28:25;17.03;;;10.37;;
1759;SDS011;877;46.266;20.062;2024-02-23T05:30:52;15.20;;;11.50;;
1759;SDS011;877;46.266;20.062;2024-02-23T05:33:18;15.10;;;10.40;;
1759;SDS011;877;46.266;20.062;2024-02-23T05:35:46;17.83;;;11.97;;
1759;SDS011;877;46.266;20.062;2024-02-23T05:38:14;16.30;;;11.67;;
1759;SDS011;877;46.266;20.062;2024-02-23T05:40:40;18.17;;;12.53;;
1759;SDS011;877;46.266;20.062;2024-02-23T05:43:06;16.17;;;12.10;;
1759;SDS011;877;46.266;20.062;2024-02-23T05:45:32;18.90;;;11.90;;
1759;SDS011;877;46.266;20.062;2024-02-23T05:47:59;14.60;;;10.40;;
1759;SDS011;877;46.266;20.062;2024-02-23T05:50:27;17.90;;;12.67;;
1759;SDS011;877;46.266;20.062;2024-02-23T05:52:53;15.77;;;10.90;;
1759;SDS011;877;46.266;20.062;2024-02-23T05:55:19;20.60;;;12.67;;
1759;SDS011;877;46.266;20.062;2024-02-23T05:57:45;18.80;;;12.93;;
1759;SDS011;877;46.266;20.062;2024-02-23T06:00:12;18.37;;;11.40;;
1759;SDS011;877;46.266;20.062;2024-02-23T06:02:39;14.07;;;10.20;;
1759;SDS011;877;46.266;20.062;2024-02-23T06:05:06;18.43;;;12.90;;
1759;SDS011;877;46.266;20.062;2024-02-23T06:07:32;20.33;;;12.47;;
1759;SDS011;877;46.266;20.062;2024-02-23T06:10:00;17.17;;;12.23;;
1759;SDS011;877;46.266;20.062;2024-02-23T06:12:26;16.97;;;11.83;;
1759;SDS011;877;46.266;20.062;2024-02-23T06:14:52;16.23;;;11.30;;
1759;SDS011;877;46.266;20.062;2024-02-23T06:17:20;16.33;;;11.70;;
1759;SDS011;877;46.266;20.062;2024-02-23T06:19:47;18.63;;;11.70;;
1759;SDS011;877;46.266;20.062;2024-02-23T06:22:13;18.97;;;12.03;;
1759;SDS011;877;46.266;20.062;2024-02-23T06:24:42;19.20;;;13.10;;
1759;SDS011;877;46.266;20.062;2024-02-23T06:27:08;17.33;;;11.53;;
1759;SDS011;877;46.266;20.062;2024-02-23T06:29:35;19.40;;;12.20;;
1759;SDS011;877;46.266;20.062;2024-02-23T06:32:01;17.43;;;12.00;;
1759;SDS011;877;46.266;20.062;2024-02-23T06:34:28;25.07;;;16.67;;
1759;SDS011;877;46.266;20.062;2024-02-23T06:36:54;19.40;;;13.40;;
1759;SDS011;877;46.266;20.062;2024-02-23T06:39:20;18.57;;;12.93;;
1759;SDS011;877;46.266;20.062;2024-02-23T06:41:46;16.20;;;11.80;;
1759;SDS011;877;46.266;20.062;2024-02-23T06:44:12;19.77;;;12.33;;
1759;SDS011;877;46.266;20.062;2024-02-23T06:46:38;27.70;;;17.57;;
1759;SDS011;877;46.266;20.062;2024-02-23T06:49:05;48.50;;;27.60;;
1759;SDS011;877;46.266;20.062;2024-02-23T06:51:31;115.47;;;81.20;;
1759;SDS011;877;46.266;20.062;2024-02-23T06:53:57;29.03;;;21.60;;
1759;SDS011;877;46.266;20.062;2024-02-23T06:56:23;181.53;;;114.80;;
1759;SDS011;877;46.266;20.062;2024-02-23T06:58:50;134.93;;;76.13;;
1759;SDS011;877;46.266;20.062;2024-02-23T07:01:16;274.63;;;141.63;;
1759;SDS011;877;46.266;20.062;2024-02-23T07:03:42;186.90;;;113.37;;
1759;SDS011;877;46.266;20.062;2024-02-23T07:06:10;31.93;;;25.03;;
1759;SDS011;877;46.266;20.062;2024-02-23T07:08:36;49.13;;;44.03;;
1759;SDS011;877;46.266;20.062;2024-02-23T07:11:02;28.00;;;23.60;;
1759;SDS011;877;46.266;20.062;2024-02-23T07:13:30;49.17;;;42.97;;
1759;SDS011;877;46.266;20.062;2024-02-23T07:15:56;60.50;;;47.57;;
1759;SDS011;877;46.266;20.062;2024-02-23T07:18:23;45.83;;;40.03;;
1759;SDS011;877;46.266;20.062;2024-02-23T07:20:49;152.77;;;136.73;;
1759;SDS011;877;46.266;20.062;2024-02-23T07:23:15;45.13;;;34.40;;
1759;SDS011;877;46.266;20.062;2024-02-23T07:25:42;69.63;;;53.67;;
1759;SDS011;877;46.266;20.062;2024-02-23T07:28:08;46.57;;;33.83;;
1759;SDS011;877;46.266;20.062;2024-02-23T07:30:34;24.60;;;20.37;;
1759;SDS011;877;46.266;20.062;2024-02-23T07:33:00;26.30;;;21.00;;
1759;SDS011;877;46.266;20.062;2024-02-23T07:35:26;16.47;;;11.63;;
1759;SDS011;877;46.266;20.062;2024-02-23T07:37:54;17.03;;;13.60;;
1759;SDS011;877;46.266;20.062;2024-02-23T07:40:21;19.20;;;14.87;;
1759;SDS011;877;46.266;20.062;2024-02-23T07:42:47;21.30;;;14.10;;
1759;SDS011;877;46.266;20.062;2024-02-23T07:45:13;19.67;;;14.50;;
1759;SDS011;877;46.266;20.062;2024-02-23T07:47:39;17.07;;;13.37;;
1759;SDS011;877;46.266;20.062;2024-02-23T07:50:05;15.30;;;10.43;;
1759;SDS011;877;46.266;20.062;2024-02-23T07:52:32;17.80;;;15.03;;
1759;SDS011;877;46.266;20.062;2024-02-23T07:54:58;18.97;;;11.20;;
1759;SDS011;877;46.266;20.062;2024-02-23T07:57:27;15.10;;;10.50;;
1759;SDS011;877;46.266;20.062;2024-02-23T07:59:53;13.93;;;10.10;;
1759;SDS011;877;46.266;20.062;2024-02-23T08:02:19;16.20;;;10.83;;
1759;SDS011;877;46.266;20.062;2024-02-23T08:04:46;15.57;;;12.30;;
1759;SDS011;877;46.266;20.062;2024-02-23T08:07:13;19.30;;;15.30;;
1759;SDS011;877;46.266;20.062;2024-02-23T08:09:39;15.00;;;11.77;;
1759;SDS011;877;46.266;20.062;2024-02-23T08:12:06;17.63;;;12.97;;
1759;SDS011;877;46.266;20.062;2024-02-23T08:14:32;18.03;;;12.40;;
1759;SDS011;877;46.266;20.062;2024-02-23T08:16:58;17.33;;;14.43;;
1759;SDS011;877;46.266;20.062;2024-02-23T08:19:24;14.57;;;10.77;;
1759;SDS011;877;46.266;20.062;2024-02-23T08:21:50;18.80;;;14.53;;
1759;SDS011;877;46.266;20.062;2024-02-23T08:24:18;17.33;;;13.00;;
1759;SDS011;877;46.266;20.062;2024-02-23T08:26:45;16.50;;;11.70;;
1759;SDS011;877;46.266;20.062;2024-02-23T08:29:11;17.47;;;12.27;;
1759;SDS011;877;46.266;20.062;2024-02-23T08:31:37;73.73;;;43.27;;
1759;SDS011;877;46.266;20.062;2024-02-23T08:34:03;183.27;;;113.97;;
1759;SDS011;877;46.266;20.062;2024-02-23T08:36:30;93.80;;;57.67;;
1759;SDS011;877;46.266;20.062;2024-02-23T08:38:56;144.87;;;98.80;;
1759;SDS011;877;46.266;20.062;2024-02-23T08:41:22;16.23;;;11.47;;
1759;SDS011;877;46.266;20.062;2024-02-23T08:43:49;26.13;;;22.53;;
1759;SDS011;877;46.266;20.062;2024-02-23T08:46:15;16.33;;;11.40;;
1759;SDS011;877;46.266;20.062;2024-02-23T08:48:41;15.30;;;10.77;;
1759;SDS011;877;46.266;20.062;2024-02-23T08:51:07;12.40;;;8.90;;
1759;SDS011;877;46.266;20.062;2024-02-23T08:53:33;14.83;;;9.83;;
1759;SDS011;877;46.266;20.062;2024-02-23T08:55:59;13.40;;;9.97;;
1759;SDS011;877;46.266;20.062;2024-02-23T08:58:26;16.30;;;12.27;;
1759;SDS011;877;46.266;20.062;2024-02-23T09:00:52;13.57;;;10.30;;
1759;SDS011;877;46.266;20.062;2024-02-23T09:03:22;12.60;;;9.43;;
1759;SDS011;877;46.266;20.062;2024-02-23T09:05:49;14.87;;;9.63;;
1759;SDS011;877;46.266;20.062;2024-02-23T09:08:15;11.87;;;10.37;;
1759;SDS011;877;46.266;20.062;2024-02-23T09:10:41;16.17;;;10.90;;
1759;SDS011;877;46.266;20.062;2024-02-23T09:13:07;11.43;;;9.67;;
1759;SDS011;877;46.266;20.062;2024-02-23T09:15:33;14.13;;;9.00;;
1759;SDS011;877;46.266;20.062;2024-02-23T09:17:59;12.17;;;10.03;;
1759;SDS011;877;46.266;20.062;2024-02-23T09:20:26;12.73;;;8.83;;
1759;SDS011;877;46.266;20.062;2024-02-23T09:22:53;16.30;;;10.00;;
1759;SDS011;877;46.266;20.062;2024-02-23T09:25:19;12.23;;;8.70;;
1759;SDS011;877;46.266;20.062;2024-02-23T09:27:46;11.83;;;8.67;;
1759;SDS011;877;46.266;20.062;2024-02-23T09:30:12;13.37;;;9.57;;
1759;SDS011;877;46.266;20.062;2024-02-23T09:32:40;11.97;;;10.03;;
1759;SDS011;877;46.266;20.062;2024-02-23T09:35:06;12.60;;;9.07;;
1759;SDS011;877;46.266;20.062;2024-02-23T09:37:32;11.33;;;9.03;;
1759;SDS011;877;46.266;20.062;2024-02-23T09:39:58;17.00;;;9.20;;
1759;SDS011;877;46.266;20.062;2024-02-23T09:42:24;12.33;;;8.90;;
1759;SDS011;877;46.266;20.062;2024-02-23T09:44:58;13.30;;;10.43;;
1759;SDS011;877;46.266;20.062;2024-02-23T09:47:27;20.53;;;16.13;;
1759;SDS011;877;46.266;20.062;2024-02-23T09:49:54;49.40;;;35.60;;
1759;SDS011;877;46.266;20.062;2024-02-23T09:52:20;72.63;;;43.40;;
1759;SDS011;877;46.266;20.062;2024-02-23T09:54:47;76.53;;;46.40;;
1759;SDS011;877;46.266;20.062;2024-02-23T09:57:13;115.43;;;65.53;;
1759;SDS011;877;46.266;20.062;2024-02-23T09:59:46;16.03;;;12.43;;
1759;SDS011;877;46.266;20.062;2024-02-23T10:02:16;25.83;;;16.13;;
1759;SDS011;877;46.266;20.062;2024-02-23T10:04:43;31.23;;;21.60;;
1759;SDS011;877;46.266;20.062;2024-02-23T10:07:10;19.60;;;15.57;;
1759;SDS011;877;46.266;20.062;2024-02-23T10:09:36;12.80;;;9.17;;
1759;SDS011;877;46.266;20.062;2024-02-23T10:12:02;20.67;;;17.50;;
1759;SDS011;877;46.266;20.062;2024-02-23T10:14:29;11.77;;;8.90;;
1759;SDS011;877;46.266;20.062;2024-02-23T10:16:56;10.77;;;8.17;;
1759;SDS011;877;46.266;20.062;2024-02-23T10:19:22;22.87;;;18.37;;
1759;SDS011;877;46.266;20.062;2024-02-23T10:21:54;11.73;;;10.30;;
1759;SDS011;877;46.266;20.062;2024-02-23T10:24:20;11.77;;;10.17;;
1759;SDS011;877;46.266;20.062;2024-02-23T10:26:47;16.63;;;11.20;;
1759;SDS011;877;46.266;20.062;2024-02-23T10:29:13;12.50;;;9.27;;
1759;SDS011;877;46.266;20.062;2024-02-23T10:31:39;18.93;;;11.53;;
1759;SDS011;877;46.266;20.062;2024-02-23T10:34:08;17.00;;;9.87;;
1759;SDS011;877;46.266;20.062;2024-02-23T10:36:38;14.37;;;9.73;;
1759;SDS011;877;46.266;20.062;2024-02-23T10:39:05;13.90;;;11.30;;
1759;SDS011;877;46.266;20.062;2024-02-23T10:41:34;13.90;;;11.03;;
1759;SDS011;877;46.266;20.062;2024-02-23T10:44:04;12.13;;;8.47;;
1759;SDS011;877;46.266;20.062;2024-02-23T10:46:32;15.77;;;10.67;;
1759;SDS011;877;46.266;20.062;2024-02-23T10:48:58;13.40;;;8.00;;
1759;SDS011;877;46.266;20.062;2024-02-23T10:51:24;11.93;;;10.77;;
1759;SDS011;877;46.266;20.062;2024-02-23T10:53:51;11.87;;;8.80;;
1759;SDS011;877;46.266;20.062;2024-02-23T10:56:18;419.83;;;264.10;;
1759;SDS011;877;46.266;20.062;2024-02-23T10:58:45;105.80;;;59.90;;
1759;SDS011;877;46.266;20.062;2024-02-23T11:01:11;30.20;;;25.60;;
1759;SDS011;877;46.266;20.062;2024-02-23T11:03:38;16.87;;;15.07;;
1759;SDS011;877;46.266;20.062;2024-02-23T11:06:07;31.50;;;18.07;;
1759;SDS011;877;46.266;20.062;2024-02-23T11:08:35;21.90;;;16.30;;
1759;SDS011;877;46.266;20.062;2024-02-23T11:11:11;24.77;;;16.13;;
1759;SDS011;877;46.266;20.062;2024-02-23T11:13:39;22.47;;;13.23;;
1759;SDS011;877;46.266;20.062;2024-02-23T11:16:07;13.50;;;10.13;;
1759;SDS011;877;46.266;20.062;2024-02-23T11:18:36;16.60;;;9.53;;
1759;SDS011;877;46.266;20.062;2024-02-23T11:21:04;12.13;;;9.17;;
1759;SDS011;877;46.266;20.062;2024-02-23T11:23:44;13.43;;;9.30;;
1759;SDS011;877;46.266;20.062;2024-02-23T11:26:11;16.10;;;10.40;;
1759;SDS011;877;46.266;20.062;2024-02-23T11:31:13;13.57;;;9.97;;
1759;SDS011;877;46.266;20.062;2024-02-23T11:33:39;17.50;;;14.27;;
1759;SDS011;877;46.266;20.062;2024-02-23T11:38:36;15.60;;;10.90;;
1759;SDS011;877;46.266;20.062;2024-02-23T11:41:04;24.60;;;16.00;;
1759;SDS011;877;46.266;20.062;2024-02-23T11:43:32;13.87;;;8.93;;
1759;SDS011;877;46.266;20.062;2024-02-23T11:46:00;15.20;;;9.90;;
1759;SDS011;877;46.266;20.062;2024-02-23T11:48:26;14.80;;;10.37;;
1759;SDS011;877;46.266;20.062;2024-02-23T11:50:52;24.60;;;16.50;;
1759;SDS011;877;46.266;20.062;2024-02-23T11:53:19;36.10;;;23.83;;
1759;SDS011;877;46.266;20.062;2024-02-23T11:55:47;20.83;;;15.43;;
1759;SDS011;877;46.266;20.062;2024-02-23T11:58:13;64.97;;;47.33;;
1759;SDS011;877;46.266;20.062;2024-02-23T12:00:39;189.93;;;119.73;;
1759;SDS011;877;46.266;20.062;2024-02-23T12:03:05;344.00;;;198.50;;
1759;SDS011;877;46.266;20.062;2024-02-23T12:05:32;159.00;;;89.90;;
1759;SDS011;877;46.266;20.062;2024-02-23T12:07:59;44.77;;;33.27;;
1759;SDS011;877;46.266;20.062;2024-02-23T12:10:26;26.23;;;17.10;;
1759;SDS011;877;46.266;20.062;2024-02-23T12:12:53;135.90;;;81.73;;
1759;SDS011;877;46.266;20.062;2024-02-23T12:15:20;102.97;;;61.23;;
1759;SDS011;877;46.266;20.062;2024-02-23T12:17:50;76.63;;;47.23;;
1759;SDS011;877;46.266;20.062;2024-02-23T12:20:16;64.77;;;38.67;;
1759;SDS011;877;46.266;20.062;2024-02-23T12:22:42;59.23;;;41.03;;
1759;SDS011;877;46.266;20.062;2024-02-23T12:25:08;112.37;;;74.57;;
1759;SDS011;877;46.266;20.062;2024-02-23T12:27:34;235.83;;;157.67;;
1759;SDS011;877;46.266;20.062;2024-02-23T12:30:01;84.13;;;60.97;;
1759;SDS011;877;46.266;20.062;2024-02-23T12:32:27;113.07;;;86.90;;
1759;SDS011;877;46.266;20.062;2024-02-23T12:34:53;56.90;;;45.07;;
1759;SDS011;877;46.266;20.062;2024-02-23T12:37:19;113.73;;;87.80;;
1759;SDS011;877;46.266;20.062;2024-02-23T12:39:47;58.07;;;45.40;;
1759;SDS011;877;46.266;20.062;2024-02-23T12:42:13;39.07;;;32.07;;
1759;SDS011;877;46.266;20.062;2024-02-23T12:44:40;55.53;;;44.83;;
1759;SDS011;877;46.266;20.062;2024-02-23T12:47:07;58.73;;;48.80;;
1759;SDS011;877;46.266;20.062;2024-02-23T12:49:33;25.10;;;21.83;;
1759;SDS011;877;46.266;20.062;2024-02-23T12:51:59;52.97;;;43.33;;
1759;SDS011;877;46.266;20.062;2024-02-23T12:54:26;63.30;;;53.50;;
1759;SDS011;877;46.266;20.062;2024-02-23T12:56:52;33.30;;;28.47;;
1759;SDS011;877;46.266;20.062;2024-02-23T12:59:18;33.27;;;27.40;;
1759;SDS011;877;46.266;20.062;2024-02-23T13:01:45;93.87;;;68.30;;
1759;SDS011;877;46.266;20.062;2024-02-23T13:04:11;35.50;;;22.73;;
1759;SDS011;877;46.266;20.062;2024-02-23T13:06:41;55.43;;;42.07;;
1759;SDS011;877;46.266;20.062;2024-02-23T13:09:07;23.47;;;17.77;;
1759;SDS011;877;46.266;20.062;2024-02-23T13:11:34;65.50;;;40.50;;
1759;SDS011;877;46.266;20.062;2024-02-23T13:14:00;55.33;;;38.00;;
1759;SDS011;877;46.266;20.062;2024-02-23T13:16:27;27.63;;;22.30;;
1759;SDS011;877;46.266;20.062;2024-02-23T13:18:53;219.13;;;109.07;;
1759;SDS011;877;46.266;20.062;2024-02-23T13:21:19;357.73;;;189.17;;
1759;SDS011;877;46.266;20.062;2024-02-23T13:23:45;211.07;;;95.97;;
1759;SDS011;877;46.266;20.062;2024-02-23T13:26:11;153.83;;;74.70;;
1759;SDS011;877;46.266;20.062;2024-02-23T13:28:41;212.83;;;100.07;;
1759;SDS011;877;46.266;20.062;2024-02-23T13:31:07;284.90;;;144.50;;
1759;SDS011;877;46.266;20.062;2024-02-23T13:33:33;226.00;;;148.23;;
1759;SDS011;877;46.266;20.062;2024-02-23T13:35:59;46.53;;;30.37;;
1759;SDS011;877;46.266;20.062;2024-02-23T13:38:25;85.60;;;54.33;;
1759;SDS011;877;46.266;20.062;2024-02-23T13:40:51;110.00;;;64.23;;
1759;SDS011;877;46.266;20.062;2024-02-23T13:43:17;113.60;;;73.07;;
1759;SDS011;877;46.266;20.062;2024-02-23T13:45:48;36.07;;;28.10;;
1759;SDS011;877;46.266;20.062;2024-02-23T13:48:15;19.20;;;13.53;;
1759;SDS011;877;46.266;20.062;2024-02-23T13:50:41;20.93;;;17.03;;
1759;SDS011;877;46.266;20.062;2024-02-23T13:53:07;14.60;;;10.73;;
1759;SDS011;877;46.266;20.062;2024-02-23T13:55:34;15.80;;;13.43;;
1759;SDS011;877;46.266;20.062;2024-02-23T13:58:00;14.47;;;12.43;;
1759;SDS011;877;46.266;20.062;2024-02-23T14:00:26;13.30;;;8.97;;
1759;SDS011;877;46.266;20.062;2024-02-23T14:02:52;14.73;;;11.63;;
1759;SDS011;877;46.266;20.062;2024-02-23T14:05:18;16.60;;;10.90;;
1759;SDS011;877;46.266;20.062;2024-02-23T14:07:46;21.50;;;18.63;;
1759;SDS011;877;46.266;20.062;2024-02-23T14:10:13;16.60;;;14.83;;
1759;SDS011;877;46.266;20.062;2024-02-23T14:12:39;59.50;;;53.40;;
1759;SDS011;877;46.266;20.062;2024-02-23T14:15:06;44.47;;;39.67;;
1759;SDS011;877;46.266;20.062;2024-02-23T14:17:32;22.30;;;19.93;;
1759;SDS011;877;46.266;20.062;2024-02-23T14:19:59;40.23;;;36.40;;
1759;SDS011;877;46.266;20.062;2024-02-23T14:22:26;18.30;;;12.93;;
1759;SDS011;877;46.266;20.062;2024-02-23T14:24:54;27.90;;;24.87;;
1759;SDS011;877;46.266;20.062;2024-02-23T14:27:20;19.07;;;12.73;;
1759;SDS011;877;46.266;20.062;2024-02-23T14:29:47;17.73;;;9.87;;
1759;SDS011;877;46.266;20.062;2024-02-23T14:32:15;18.33;;;12.40;;
1759;SDS011;877;46.266;20.062;2024-02-23T14:34:41;18.13;;;15.20;;
1759;SDS011;877;46.266;20.062;2024-02-23T14:37:07;16.47;;;11.20;;
1759;SDS011;877;46.266;20.062;2024-02-23T14:39:33;18.40;;;12.80;;
1759;SDS011;877;46.266;20.062;2024-02-23T14:42:00;15.87;;;10.73;;
1759;SDS011;877;46.266;20.062;2024-02-23T14:44:26;16.00;;;12.57;;
1759;SDS011;877;46.266;20.062;2024-02-23T14:46:52;20.40;;;16.03;;
1759;SDS011;877;46.266;20.062;2024-02-23T14:49:18;18.53;;;14.90;;
1759;SDS011;877;46.266;20.062;2024-02-23T14:51:44;17.77;;;13.67;;
1759;SDS011;877;46.266;20.062;2024-02-23T14:54:12;17.93;;;16.03;;